18:48
Airports
History
Links
Donate
Help keep this website running!
PayPal
Bitcoin
This page is community maintained. The information is intended for PC simulator navigation or reference.
Always use approved charts for navigation.
LEMO
MORON AB
MORON AB (LEMO)
Arahal, Andalucía, Spain (41600)
(C)
Lat/Lng:37° 10' 29.6" N / 5° 36' 57.66" W
37.17489 / -5.616018
Elevation:285'ft / 87mMSL
ID / ICAO:LEMO
Runways:1
Longest:02-20
Asphalt 3,605m / 11,827ft
Controlled:Yes
METAR18:00 GMT 2017-09-19
Altimeter: 30.06
Visibility: 6.2 statute miles
Wind: 2 knots (from 240°)
Temp: 29°c / 84°f
Humidity: 25.0%

METAR: LEMO 191800Z 24002KT CAVOK 29/07 Q1018 NOSIG

(Powered by phpweather)
Airport Radio Frequencies
Tower: 122.1, 139.3
Approach: 120, 120.8, 128.5
Nearby VORs <50NM
Nearby NDBs
Runway 02 / 20
Dimensions:3604.9 x 61m 11827' x 200'ft
Surface:Asphalt
Edge Lights:High intensity
Runway 02 [A]Runway 20 [B]
Heading:019°TH 199°TH
Lat:
Lng:
37° 9' 34.73"N
5° 37' 22.4"W
37° 11' 24.48"N
5° 36' 32.93"W
ALS:MALSMALS
TDZ:Yes, lighted
User Notes and Comments
37° 10' 29.6" N / 5° 36' 57.66" W
Distance To
Airport ID:
Nearby Airports
(C) Sevilla 22.7 NM
LEZL ( WX ) NW 317°
(C) TABLADA 25.1 NM
LE85 WNW 299°
(C) Jerez 38.5 NM
LEJR ( WX ) SW 219°
(C) Rota Ns 54.6 NM
LERT ( WX ) SW 227°
(C) Cordoba 62.4 NM
LEBA ( WX ) NE 42°
(C) Malaga 70.7 NM
LEMG ( WX ) ESE 119°
(C) LXGB Gibraltar 72.3 NM
LXGB ( WX ) SSE 168°
VFR Chart
Flight Planning at SkyVector.com